sensor_id;sensor_type;location;lat;lon;timestamp;P1;durP1;ratioP1;P2;durP2;ratioP2
77876;SDS011;67251;50.844;7.978;2023-11-19T00:00:09;5.07;;;1.08;;
77876;SDS011;67251;50.844;7.978;2023-11-19T00:02:38;2.70;;;0.80;;
77876;SDS011;67251;50.844;7.978;2023-11-19T00:05:04;3.47;;;1.00;;
77876;SDS011;67251;50.844;7.978;2023-11-19T00:07:33;3.03;;;1.10;;
77876;SDS011;67251;50.844;7.978;2023-11-19T00:10:06;3.40;;;0.82;;
77876;SDS011;67251;50.844;7.978;2023-11-19T00:12:46;3.15;;;0.88;;
77876;SDS011;67251;50.844;7.978;2023-11-19T00:15:13;2.33;;;0.82;;
77876;SDS011;67251;50.844;7.978;2023-11-19T00:17:42;2.53;;;0.80;;
77876;SDS011;67251;50.844;7.978;2023-11-19T00:20:09;2.53;;;0.73;;
77876;SDS011;67251;50.844;7.978;2023-11-19T00:22:39;2.42;;;0.68;;
77876;SDS011;67251;50.844;7.978;2023-11-19T00:25:06;2.63;;;0.90;;
77876;SDS011;67251;50.844;7.978;2023-11-19T00:27:32;1.92;;;0.63;;
77876;SDS011;67251;50.844;7.978;2023-11-19T00:29:58;2.88;;;0.90;;
77876;SDS011;67251;50.844;7.978;2023-11-19T00:32:23;2.35;;;0.70;;
77876;SDS011;67251;50.844;7.978;2023-11-19T00:34:49;1.95;;;0.60;;
77876;SDS011;67251;50.844;7.978;2023-11-19T00:37:14;2.35;;;0.50;;
77876;SDS011;67251;50.844;7.978;2023-11-19T00:39:40;3.28;;;0.70;;
77876;SDS011;67251;50.844;7.978;2023-11-19T00:42:06;2.35;;;0.75;;
77876;SDS011;67251;50.844;7.978;2023-11-19T00:44:31;1.85;;;0.65;;
77876;SDS011;67251;50.844;7.978;2023-11-19T00:46:57;2.78;;;0.82;;
77876;SDS011;67251;50.844;7.978;2023-11-19T00:49:23;1.92;;;0.70;;
77876;SDS011;67251;50.844;7.978;2023-11-19T00:51:48;1.88;;;0.60;;
77876;SDS011;67251;50.844;7.978;2023-11-19T00:54:14;1.98;;;0.70;;
77876;SDS011;67251;50.844;7.978;2023-11-19T00:56:39;1.77;;;0.50;;
77876;SDS011;67251;50.844;7.978;2023-11-19T00:59:05;3.38;;;0.73;;
77876;SDS011;67251;50.844;7.978;2023-11-19T01:01:30;2.60;;;0.70;;
77876;SDS011;67251;50.844;7.978;2023-11-19T01:03:55;2.13;;;0.57;;
77876;SDS011;67251;50.844;7.978;2023-11-19T01:06:31;1.90;;;0.57;;
77876;SDS011;67251;50.844;7.978;2023-11-19T01:08:57;2.10;;;0.70;;
77876;SDS011;67251;50.844;7.978;2023-11-19T01:11:24;1.98;;;0.65;;
77876;SDS011;67251;50.844;7.978;2023-11-19T01:13:49;1.42;;;0.40;;
77876;SDS011;67251;50.844;7.978;2023-11-19T01:16:16;2.17;;;0.73;;
77876;SDS011;67251;50.844;7.978;2023-11-19T01:18:41;2.30;;;0.80;;
77876;SDS011;67251;50.844;7.978;2023-11-19T01:21:07;1.67;;;0.60;;
77876;SDS011;67251;50.844;7.978;2023-11-19T01:23:33;0.95;;;0.43;;
77876;SDS011;67251;50.844;7.978;2023-11-19T01:25:59;1.27;;;0.45;;
77876;SDS011;67251;50.844;7.978;2023-11-19T01:28:24;3.28;;;0.60;;
77876;SDS011;67251;50.844;7.978;2023-11-19T01:30:52;3.65;;;0.50;;
77876;SDS011;67251;50.844;7.978;2023-11-19T01:33:18;2.38;;;0.60;;
77876;SDS011;67251;50.844;7.978;2023-11-19T01:35:43;1.70;;;0.50;;
77876;SDS011;67251;50.844;7.978;2023-11-19T01:38:09;1.42;;;0.40;;
77876;SDS011;67251;50.844;7.978;2023-11-19T01:40:34;2.03;;;0.40;;
77876;SDS011;67251;50.844;7.978;2023-11-19T01:48:27;2.45;;;0.60;;
77876;SDS011;67251;50.844;7.978;2023-11-19T01:50:53;0.82;;;0.30;;
77876;SDS011;67251;50.844;7.978;2023-11-19T01:53:19;1.08;;;0.40;;
77876;SDS011;67251;50.844;7.978;2023-11-19T01:55:46;1.40;;;0.40;;
77876;SDS011;67251;50.844;7.978;2023-11-19T01:58:12;1.45;;;0.45;;
77876;SDS011;67251;50.844;7.978;2023-11-19T02:00:38;1.05;;;0.30;;
77876;SDS011;67251;50.844;7.978;2023-11-19T02:03:04;1.95;;;0.50;;
77876;SDS011;67251;50.844;7.978;2023-11-19T02:05:33;1.58;;;0.60;;
77876;SDS011;67251;50.844;7.978;2023-11-19T02:07:59;1.65;;;0.40;;
77876;SDS011;67251;50.844;7.978;2023-11-19T02:10:24;1.15;;;0.45;;
77876;SDS011;67251;50.844;7.978;2023-11-19T02:12:50;0.98;;;0.22;;
77876;SDS011;67251;50.844;7.978;2023-11-19T02:15:16;1.48;;;0.40;;
77876;SDS011;67251;50.844;7.978;2023-11-19T02:17:44;2.33;;;0.60;;
77876;SDS011;67251;50.844;7.978;2023-11-19T02:20:09;2.65;;;0.63;;
77876;SDS011;67251;50.844;7.978;2023-11-19T02:22:37;2.65;;;0.80;;
77876;SDS011;67251;50.844;7.978;2023-11-19T02:25:04;2.08;;;0.60;;
77876;SDS011;67251;50.844;7.978;2023-11-19T02:27:40;0.82;;;0.28;;
77876;SDS011;67251;50.844;7.978;2023-11-19T02:30:10;1.20;;;0.32;;
77876;SDS011;67251;50.844;7.978;2023-11-19T02:32:36;0.93;;;0.30;;
77876;SDS011;67251;50.844;7.978;2023-11-19T02:35:05;0.60;;;0.40;;
77876;SDS011;67251;50.844;7.978;2023-11-19T02:37:32;0.90;;;0.30;;
77876;SDS011;67251;50.844;7.978;2023-11-19T02:39:59;1.50;;;0.50;;
77876;SDS011;67251;50.844;7.978;2023-11-19T02:42:34;0.88;;;0.28;;
77876;SDS011;67251;50.844;7.978;2023-11-19T02:45:00;0.65;;;0.20;;
77876;SDS011;67251;50.844;7.978;2023-11-19T02:47:26;2.95;;;0.40;;
77876;SDS011;67251;50.844;7.978;2023-11-19T02:49:53;0.80;;;0.30;;
77876;SDS011;67251;50.844;7.978;2023-11-19T02:52:19;1.30;;;0.30;;
77876;SDS011;67251;50.844;7.978;2023-11-19T02:54:44;1.48;;;0.30;;
77876;SDS011;67251;50.844;7.978;2023-11-19T02:57:11;1.75;;;0.30;;
77876;SDS011;67251;50.844;7.978;2023-11-19T02:59:37;2.22;;;0.47;;
77876;SDS011;67251;50.844;7.978;2023-11-19T03:02:07;0.75;;;0.32;;
77876;SDS011;67251;50.844;7.978;2023-11-19T03:04:36;1.42;;;0.45;;
77876;SDS011;67251;50.844;7.978;2023-11-19T03:07:04;1.38;;;0.47;;
77876;SDS011;67251;50.844;7.978;2023-11-19T03:09:30;0.47;;;0.30;;
77876;SDS011;67251;50.844;7.978;2023-11-19T03:11:55;1.15;;;0.38;;
77876;SDS011;67251;50.844;7.978;2023-11-19T03:14:21;0.82;;;0.40;;
77876;SDS011;67251;50.844;7.978;2023-11-19T03:16:47;0.63;;;0.30;;
77876;SDS011;67251;50.844;7.978;2023-11-19T03:19:13;1.80;;;0.50;;
77876;SDS011;67251;50.844;7.978;2023-11-19T03:21:38;1.38;;;0.50;;
77876;SDS011;67251;50.844;7.978;2023-11-19T03:24:04;0.45;;;0.28;;
77876;SDS011;67251;50.844;7.978;2023-11-19T03:26:29;0.65;;;0.25;;
77876;SDS011;67251;50.844;7.978;2023-11-19T03:28:55;1.40;;;0.50;;
77876;SDS011;67251;50.844;7.978;2023-11-19T03:31:22;1.05;;;0.20;;
77876;SDS011;67251;50.844;7.978;2023-11-19T03:33:47;1.65;;;0.40;;
77876;SDS011;67251;50.844;7.978;2023-11-19T03:36:13;1.77;;;0.30;;
77876;SDS011;67251;50.844;7.978;2023-11-19T03:38:38;1.10;;;0.25;;
77876;SDS011;67251;50.844;7.978;2023-11-19T03:41:13;1.40;;;0.32;;
77876;SDS011;67251;50.844;7.978;2023-11-19T03:43:39;1.63;;;0.32;;
77876;SDS011;67251;50.844;7.978;2023-11-19T03:46:15;0.98;;;0.47;;
77876;SDS011;67251;50.844;7.978;2023-11-19T03:48:45;1.13;;;0.40;;
77876;SDS011;67251;50.844;7.978;2023-11-19T03:51:11;1.25;;;0.40;;
77876;SDS011;67251;50.844;7.978;2023-11-19T03:53:40;1.85;;;0.50;;
77876;SDS011;67251;50.844;7.978;2023-11-19T03:56:09;1.98;;;0.50;;
77876;SDS011;67251;50.844;7.978;2023-11-19T03:58:35;2.65;;;0.50;;
77876;SDS011;67251;50.844;7.978;2023-11-19T04:01:01;1.60;;;0.40;;
77876;SDS011;67251;50.844;7.978;2023-11-19T04:03:27;1.17;;;0.40;;
77876;SDS011;67251;50.844;7.978;2023-11-19T04:05:52;1.08;;;0.50;;
77876;SDS011;67251;50.844;7.978;2023-11-19T04:08:18;1.15;;;0.40;;
77876;SDS011;67251;50.844;7.978;2023-11-19T04:10:43;1.25;;;0.30;;
77876;SDS011;67251;50.844;7.978;2023-11-19T04:13:08;2.05;;;0.50;;
77876;SDS011;67251;50.844;7.978;2023-11-19T04:15:34;2.47;;;0.63;;
77876;SDS011;67251;50.844;7.978;2023-11-19T04:18:00;3.42;;;1.25;;
77876;SDS011;67251;50.844;7.978;2023-11-19T04:20:25;1.65;;;0.70;;
77876;SDS011;67251;50.844;7.978;2023-11-19T04:22:51;2.28;;;0.60;;
77876;SDS011;67251;50.844;7.978;2023-11-19T04:25:16;2.35;;;0.65;;
77876;SDS011;67251;50.844;7.978;2023-11-19T04:27:41;1.20;;;0.43;;
77876;SDS011;67251;50.844;7.978;2023-11-19T04:30:07;1.13;;;0.30;;
77876;SDS011;67251;50.844;7.978;2023-11-19T04:32:35;1.00;;;0.28;;
77876;SDS011;67251;50.844;7.978;2023-11-19T04:35:01;2.33;;;0.60;;
77876;SDS011;67251;50.844;7.978;2023-11-19T04:37:26;2.08;;;0.40;;
77876;SDS011;67251;50.844;7.978;2023-11-19T04:39:52;1.73;;;0.50;;
77876;SDS011;67251;50.844;7.978;2023-11-19T04:42:17;1.67;;;0.55;;
77876;SDS011;67251;50.844;7.978;2023-11-19T04:44:43;1.27;;;0.40;;
77876;SDS011;67251;50.844;7.978;2023-11-19T04:47:08;2.15;;;0.40;;
77876;SDS011;67251;50.844;7.978;2023-11-19T04:49:36;3.42;;;0.70;;
77876;SDS011;67251;50.844;7.978;2023-11-19T04:52:07;4.88;;;0.70;;
77876;SDS011;67251;50.844;7.978;2023-11-19T04:54:33;1.35;;;0.47;;
77876;SDS011;67251;50.844;7.978;2023-11-19T04:56:59;1.13;;;0.40;;
77876;SDS011;67251;50.844;7.978;2023-11-19T04:59:25;2.67;;;0.63;;
77876;SDS011;67251;50.844;7.978;2023-11-19T05:01:50;2.95;;;0.60;;
77876;SDS011;67251;50.844;7.978;2023-11-19T05:04:15;3.65;;;0.60;;
77876;SDS011;67251;50.844;7.978;2023-11-19T05:06:41;3.40;;;0.90;;
77876;SDS011;67251;50.844;7.978;2023-11-19T05:09:07;3.10;;;0.50;;
77876;SDS011;67251;50.844;7.978;2023-11-19T05:11:35;3.47;;;0.73;;
77876;SDS011;67251;50.844;7.978;2023-11-19T05:14:04;3.20;;;0.68;;
77876;SDS011;67251;50.844;7.978;2023-11-19T05:16:30;1.77;;;0.63;;
77876;SDS011;67251;50.844;7.978;2023-11-19T05:18:55;4.68;;;1.25;;
77876;SDS011;67251;50.844;7.978;2023-11-19T05:21:21;1.30;;;0.30;;
77876;SDS011;67251;50.844;7.978;2023-11-19T05:23:46;2.17;;;0.40;;
77876;SDS011;67251;50.844;7.978;2023-11-19T05:26:21;3.42;;;0.60;;
77876;SDS011;67251;50.844;7.978;2023-11-19T05:28:48;2.50;;;0.60;;
77876;SDS011;67251;50.844;7.978;2023-11-19T05:31:15;3.50;;;0.70;;
77876;SDS011;67251;50.844;7.978;2023-11-19T05:33:41;1.70;;;0.55;;
77876;SDS011;67251;50.844;7.978;2023-11-19T05:36:06;2.15;;;0.82;;
77876;SDS011;67251;50.844;7.978;2023-11-19T05:38:33;2.03;;;0.60;;
77876;SDS011;67251;50.844;7.978;2023-11-19T05:40:59;2.17;;;0.63;;
77876;SDS011;67251;50.844;7.978;2023-11-19T05:43:24;1.88;;;0.60;;
77876;SDS011;67251;50.844;7.978;2023-11-19T05:45:49;1.85;;;0.50;;
77876;SDS011;67251;50.844;7.978;2023-11-19T05:48:15;2.55;;;0.70;;
77876;SDS011;67251;50.844;7.978;2023-11-19T05:50:41;3.17;;;0.90;;
77876;SDS011;67251;50.844;7.978;2023-11-19T05:53:07;2.63;;;0.63;;
77876;SDS011;67251;50.844;7.978;2023-11-19T05:55:35;2.92;;;0.68;;
77876;SDS011;67251;50.844;7.978;2023-11-19T05:58:11;2.28;;;0.60;;
77876;SDS011;67251;50.844;7.978;2023-11-19T06:00:37;1.70;;;0.57;;
77876;SDS011;67251;50.844;7.978;2023-11-19T06:03:04;3.45;;;0.75;;
77876;SDS011;67251;50.844;7.978;2023-11-19T06:05:29;4.35;;;0.88;;
77876;SDS011;67251;50.844;7.978;2023-11-19T06:07:54;2.67;;;0.65;;
77876;SDS011;67251;50.844;7.978;2023-11-19T06:10:20;2.75;;;0.82;;
77876;SDS011;67251;50.844;7.978;2023-11-19T06:12:46;5.50;;;1.00;;
77876;SDS011;67251;50.844;7.978;2023-11-19T06:15:12;3.35;;;1.02;;
77876;SDS011;67251;50.844;7.978;2023-11-19T06:17:38;3.50;;;0.90;;
77876;SDS011;67251;50.844;7.978;2023-11-19T06:20:04;4.07;;;0.80;;
77876;SDS011;67251;50.844;7.978;2023-11-19T06:22:30;2.75;;;0.60;;
77876;SDS011;67251;50.844;7.978;2023-11-19T06:24:56;4.40;;;0.85;;
77876;SDS011;67251;50.844;7.978;2023-11-19T06:27:21;2.25;;;0.70;;
77876;SDS011;67251;50.844;7.978;2023-11-19T06:29:47;5.85;;;1.25;;
77876;SDS011;67251;50.844;7.978;2023-11-19T06:32:13;4.28;;;1.10;;
77876;SDS011;67251;50.844;7.978;2023-11-19T06:34:38;7.57;;;1.20;;
77876;SDS011;67251;50.844;7.978;2023-11-19T06:37:03;3.65;;;1.00;;
77876;SDS011;67251;50.844;7.978;2023-11-19T06:39:29;5.57;;;0.90;;
77876;SDS011;67251;50.844;7.978;2023-11-19T06:41:55;5.30;;;1.20;;
77876;SDS011;67251;50.844;7.978;2023-11-19T06:44:20;4.78;;;1.15;;
77876;SDS011;67251;50.844;7.978;2023-11-19T06:46:45;3.00;;;0.70;;
77876;SDS011;67251;50.844;7.978;2023-11-19T06:49:11;4.03;;;0.82;;
77876;SDS011;67251;50.844;7.978;2023-11-19T06:51:40;3.10;;;0.88;;
77876;SDS011;67251;50.844;7.978;2023-11-19T06:54:06;4.57;;;1.13;;
77876;SDS011;67251;50.844;7.978;2023-11-19T06:56:32;5.45;;;1.10;;
77876;SDS011;67251;50.844;7.978;2023-11-19T06:58:57;3.13;;;0.90;;
77876;SDS011;67251;50.844;7.978;2023-11-19T07:01:23;3.60;;;0.90;;
77876;SDS011;67251;50.844;7.978;2023-11-19T07:03:48;3.60;;;0.93;;
77876;SDS011;67251;50.844;7.978;2023-11-19T07:06:14;6.18;;;1.02;;
77876;SDS011;67251;50.844;7.978;2023-11-19T07:08:43;3.22;;;0.82;;
77876;SDS011;67251;50.844;7.978;2023-11-19T07:11:12;3.55;;;0.82;;
77876;SDS011;67251;50.844;7.978;2023-11-19T07:13:39;4.38;;;1.75;;
77876;SDS011;67251;50.844;7.978;2023-11-19T07:16:05;6.07;;;1.23;;
77876;SDS011;67251;50.844;7.978;2023-11-19T07:18:31;2.95;;;0.95;;
77876;SDS011;67251;50.844;7.978;2023-11-19T07:20:56;4.95;;;1.08;;
77876;SDS011;67251;50.844;7.978;2023-11-19T07:23:22;2.97;;;0.80;;
77876;SDS011;67251;50.844;7.978;2023-11-19T07:25:47;6.20;;;1.13;;
77876;SDS011;67251;50.844;7.978;2023-11-19T07:28:15;6.72;;;1.65;;
77876;SDS011;67251;50.844;7.978;2023-11-19T07:30:41;7.07;;;1.40;;
77876;SDS011;67251;50.844;7.978;2023-11-19T07:33:07;5.47;;;1.40;;
77876;SDS011;67251;50.844;7.978;2023-11-19T07:35:33;5.18;;;1.30;;
77876;SDS011;67251;50.844;7.978;2023-11-19T07:37:58;6.47;;;2.17;;
77876;SDS011;67251;50.844;7.978;2023-11-19T07:40:24;7.53;;;1.63;;
77876;SDS011;67251;50.844;7.978;2023-11-19T07:42:50;3.35;;;1.23;;
77876;SDS011;67251;50.844;7.978;2023-11-19T07:45:16;6.65;;;1.40;;
77876;SDS011;67251;50.844;7.978;2023-11-19T07:47:42;8.38;;;2.00;;
77876;SDS011;67251;50.844;7.978;2023-11-19T07:50:09;7.80;;;1.52;;
77876;SDS011;67251;50.844;7.978;2023-11-19T07:52:38;6.03;;;1.13;;
77876;SDS011;67251;50.844;7.978;2023-11-19T07:55:03;4.82;;;1.23;;
77876;SDS011;67251;50.844;7.978;2023-11-19T07:57:30;5.70;;;1.17;;
77876;SDS011;67251;50.844;7.978;2023-11-19T07:59:56;7.10;;;1.35;;
77876;SDS011;67251;50.844;7.978;2023-11-19T08:02:22;7.03;;;1.30;;
77876;SDS011;67251;50.844;7.978;2023-11-19T08:04:49;5.03;;;1.00;;
77876;SDS011;67251;50.844;7.978;2023-11-19T08:07:17;5.53;;;1.13;;
77876;SDS011;67251;50.844;7.978;2023-11-19T08:09:43;5.38;;;1.30;;
77876;SDS011;67251;50.844;7.978;2023-11-19T08:12:09;9.00;;;1.90;;
77876;SDS011;67251;50.844;7.978;2023-11-19T08:14:35;9.98;;;1.70;;
77876;SDS011;67251;50.844;7.978;2023-11-19T08:17:00;8.25;;;1.58;;
77876;SDS011;67251;50.844;7.978;2023-11-19T08:19:25;5.97;;;1.10;;
77876;SDS011;67251;50.844;7.978;2023-11-19T08:21:51;7.20;;;1.70;;
77876;SDS011;67251;50.844;7.978;2023-11-19T08:24:17;7.10;;;1.67;;
77876;SDS011;67251;50.844;7.978;2023-11-19T08:26:42;6.00;;;1.50;;
77876;SDS011;67251;50.844;7.978;2023-11-19T08:29:08;8.15;;;1.58;;
77876;SDS011;67251;50.844;7.978;2023-11-19T08:31:34;11.18;;;2.38;;
77876;SDS011;67251;50.844;7.978;2023-11-19T08:34:00;6.07;;;1.70;;
77876;SDS011;67251;50.844;7.978;2023-11-19T08:36:25;12.10;;;2.85;;
77876;SDS011;67251;50.844;7.978;2023-11-19T08:38:52;6.90;;;1.65;;
77876;SDS011;67251;50.844;7.978;2023-11-19T08:41:18;8.98;;;3.05;;
77876;SDS011;67251;50.844;7.978;2023-11-19T08:43:44;7.95;;;1.33;;
77876;SDS011;67251;50.844;7.978;2023-11-19T08:46:10;9.93;;;2.33;;
77876;SDS011;67251;50.844;7.978;2023-11-19T08:48:36;12.52;;;3.72;;
77876;SDS011;67251;50.844;7.978;2023-11-19T08:51:02;8.80;;;1.50;;
77876;SDS011;67251;50.844;7.978;2023-11-19T08:53:27;8.13;;;1.92;;
77876;SDS011;67251;50.844;7.978;2023-11-19T08:55:53;6.90;;;2.13;;
77876;SDS011;67251;50.844;7.978;2023-11-19T08:58:18;7.68;;;1.42;;
77876;SDS011;67251;50.844;7.978;2023-11-19T09:00:43;4.60;;;1.13;;
77876;SDS011;67251;50.844;7.978;2023-11-19T09:03:09;9.65;;;1.50;;
77876;SDS011;67251;50.844;7.978;2023-11-19T09:05:34;8.43;;;2.45;;
77876;SDS011;67251;50.844;7.978;2023-11-19T09:08:00;8.85;;;1.45;;
77876;SDS011;67251;50.844;7.978;2023-11-19T09:10:25;6.25;;;1.52;;
77876;SDS011;67251;50.844;7.978;2023-11-19T09:12:52;11.80;;;1.70;;
77876;SDS011;67251;50.844;7.978;2023-11-19T09:15:17;7.65;;;1.52;;
77876;SDS011;67251;50.844;7.978;2023-11-19T09:17:42;6.60;;;1.77;;
77876;SDS011;67251;50.844;7.978;2023-11-19T09:20:08;8.98;;;2.17;;
77876;SDS011;67251;50.844;7.978;2023-11-19T09:22:37;10.35;;;2.05;;
77876;SDS011;67251;50.844;7.978;2023-11-19T09:25:02;7.82;;;1.38;;
77876;SDS011;67251;50.844;7.978;2023-11-19T09:27:27;10.38;;;2.00;;
77876;SDS011;67251;50.844;7.978;2023-11-19T09:29:54;7.80;;;1.40;;
77876;SDS011;67251;50.844;7.978;2023-11-19T09:32:22;7.78;;;2.03;;
77876;SDS011;67251;50.844;7.978;2023-11-19T09:34:48;6.90;;;1.65;;
77876;SDS011;67251;50.844;7.978;2023-11-19T09:37:13;8.02;;;1.50;;
77876;SDS011;67251;50.844;7.978;2023-11-19T09:39:38;8.50;;;1.50;;
77876;SDS011;67251;50.844;7.978;2023-11-19T09:42:04;9.32;;;1.60;;
77876;SDS011;67251;50.844;7.978;2023-11-19T09:44:30;9.98;;;1.52;;
77876;SDS011;67251;50.844;7.978;2023-11-19T09:46:56;11.02;;;2.10;;
77876;SDS011;67251;50.844;7.978;2023-11-19T09:49:23;11.10;;;2.10;;
77876;SDS011;67251;50.844;7.978;2023-11-19T09:51:52;12.35;;;3.60;;
77876;SDS011;67251;50.844;7.978;2023-11-19T09:54:17;10.98;;;2.80;;
77876;SDS011;67251;50.844;7.978;2023-11-19T09:56:43;12.20;;;2.30;;
77876;SDS011;67251;50.844;7.978;2023-11-19T09:59:08;8.63;;;2.25;;
77876;SDS011;67251;50.844;7.978;2023-11-19T10:01:35;7.03;;;1.80;;
77876;SDS011;67251;50.844;7.978;2023-11-19T10:04:02;8.40;;;2.03;;
77876;SDS011;67251;50.844;7.978;2023-11-19T10:06:28;11.27;;;2.42;;
77876;SDS011;67251;50.844;7.978;2023-11-19T10:08:53;10.63;;;1.67;;
77876;SDS011;67251;50.844;7.978;2023-11-19T10:11:20;12.80;;;1.98;;
77876;SDS011;67251;50.844;7.978;2023-11-19T10:13:47;12.25;;;1.98;;
77876;SDS011;67251;50.844;7.978;2023-11-19T10:16:13;12.77;;;1.75;;
77876;SDS011;67251;50.844;7.978;2023-11-19T10:18:45;9.00;;;1.42;;
77876;SDS011;67251;50.844;7.978;2023-11-19T10:21:12;7.07;;;1.83;;
77876;SDS011;67251;50.844;7.978;2023-11-19T10:23:57;7.55;;;1.67;;
77876;SDS011;67251;50.844;7.978;2023-11-19T10:26:24;7.57;;;1.70;;
77876;SDS011;67251;50.844;7.978;2023-11-19T10:28:50;10.18;;;1.80;;
77876;SDS011;67251;50.844;7.978;2023-11-19T10:31:16;7.97;;;1.73;;
77876;SDS011;67251;50.844;7.978;2023-11-19T10:33:43;10.70;;;1.77;;
77876;SDS011;67251;50.844;7.978;2023-11-19T10:36:10;13.23;;;2.17;;
77876;SDS011;67251;50.844;7.978;2023-11-19T10:38:39;9.30;;;1.80;;
77876;SDS011;67251;50.844;7.978;2023-11-19T10:41:05;10.10;;;1.85;;
77876;SDS011;67251;50.844;7.978;2023-11-19T10:43:31;10.23;;;2.03;;
77876;SDS011;67251;50.844;7.978;2023-11-19T10:46:12;11.23;;;2.20;;
77876;SDS011;67251;50.844;7.978;2023-11-19T10:48:39;10.57;;;1.60;;
77876;SDS011;67251;50.844;7.978;2023-11-19T10:51:06;11.52;;;1.92;;
77876;SDS011;67251;50.844;7.978;2023-11-19T10:53:33;7.30;;;1.33;;
77876;SDS011;67251;50.844;7.978;2023-11-19T10:56:04;13.52;;;3.35;;
77876;SDS011;67251;50.844;7.978;2023-11-19T10:58:33;10.68;;;1.92;;
77876;SDS011;67251;50.844;7.978;2023-11-19T11:03:35;6.78;;;1.77;;
77876;SDS011;67251;50.844;7.978;2023-11-19T11:06:05;10.30;;;2.70;;
77876;SDS011;67251;50.844;7.978;2023-11-19T11:08:31;10.98;;;2.10;;
77876;SDS011;67251;50.844;7.978;2023-11-19T11:10:57;9.40;;;1.70;;
77876;SDS011;67251;50.844;7.978;2023-11-19T11:13:23;11.57;;;1.70;;
77876;SDS011;67251;50.844;7.978;2023-11-19T11:15:50;12.38;;;2.42;;
77876;SDS011;67251;50.844;7.978;2023-11-19T11:18:16;9.75;;;2.00;;
77876;SDS011;67251;50.844;7.978;2023-11-19T11:20:44;12.68;;;1.80;;
77876;SDS011;67251;50.844;7.978;2023-11-19T11:23:31;9.15;;;2.25;;
77876;SDS011;67251;50.844;7.978;2023-11-19T11:31:09;10.27;;;1.45;;
77876;SDS011;67251;50.844;7.978;2023-11-19T11:36:24;10.10;;;1.98;;
77876;SDS011;67251;50.844;7.978;2023-11-19T11:38:51;8.05;;;1.48;;
77876;SDS011;67251;50.844;7.978;2023-11-19T11:41:18;11.77;;;2.38;;
77876;SDS011;67251;50.844;7.978;2023-11-19T11:43:49;7.68;;;1.40;;
77876;SDS011;67251;50.844;7.978;2023-11-19T12:02:11;11.68;;;1.90;;
77876;SDS011;67251;50.844;7.978;2023-11-19T12:04:39;11.13;;;1.98;;
77876;SDS011;67251;50.844;7.978;2023-11-19T12:07:05;12.60;;;2.15;;
77876;SDS011;67251;50.844;7.978;2023-11-19T12:09:39;14.15;;;2.45;;
77876;SDS011;67251;50.844;7.978;2023-11-19T12:19:59;8.82;;;1.45;;
77876;SDS011;67251;50.844;7.978;2023-11-19T12:22:34;9.07;;;1.80;;
77876;SDS011;67251;50.844;7.978;2023-11-19T12:25:02;10.50;;;1.60;;
77876;SDS011;67251;50.844;7.978;2023-11-19T12:27:29;7.90;;;1.42;;
77876;SDS011;67251;50.844;7.978;2023-11-19T12:29:54;10.05;;;1.48;;
77876;SDS011;67251;50.844;7.978;2023-11-19T12:32:22;5.07;;;1.52;;
77876;SDS011;67251;50.844;7.978;2023-11-19T12:34:47;5.22;;;0.95;;
77876;SDS011;67251;50.844;7.978;2023-11-19T12:37:13;4.38;;;1.10;;
77876;SDS011;67251;50.844;7.978;2023-11-19T12:39:38;9.55;;;1.95;;
77876;SDS011;67251;50.844;7.978;2023-11-19T12:42:05;9.77;;;1.55;;
77876;SDS011;67251;50.844;7.978;2023-11-19T12:44:30;7.07;;;1.58;;
77876;SDS011;67251;50.844;7.978;2023-11-19T12:46:59;8.70;;;1.48;;
77876;SDS011;67251;50.844;7.978;2023-11-19T12:49:26;13.48;;;1.90;;
77876;SDS011;67251;50.844;7.978;2023-11-19T12:51:51;11.55;;;1.85;;
77876;SDS011;67251;50.844;7.978;2023-11-19T12:54:17;10.73;;;2.30;;
77876;SDS011;67251;50.844;7.978;2023-11-19T12:56:52;8.23;;;1.63;;
77876;SDS011;67251;50.844;7.978;2023-11-19T12:59:18;10.15;;;2.30;;
77876;SDS011;67251;50.844;7.978;2023-11-19T13:01:54;7.60;;;1.73;;
77876;SDS011;67251;50.844;7.978;2023-11-19T13:04:22;8.55;;;1.67;;
77876;SDS011;67251;50.844;7.978;2023-11-19T13:06:52;7.07;;;1.75;;
77876;SDS011;67251;50.844;7.978;2023-11-19T13:09:24;10.85;;;1.70;;
77876;SDS011;67251;50.844;7.978;2023-11-19T13:11:50;14.13;;;2.00;;
77876;SDS011;67251;50.844;7.978;2023-11-19T13:14:16;5.10;;;1.52;;
77876;SDS011;67251;50.844;7.978;2023-11-19T13:16:42;8.55;;;2.15;;
77876;SDS011;67251;50.844;7.978;2023-11-19T13:19:07;12.63;;;2.40;;
77876;SDS011;67251;50.844;7.978;2023-11-19T13:21:46;5.88;;;1.40;;
77876;SDS011;67251;50.844;7.978;2023-11-19T13:24:13;8.32;;;2.20;;
77876;SDS011;67251;50.844;7.978;2023-11-19T13:26:44;10.02;;;1.73;;
77876;SDS011;67251;50.844;7.978;2023-11-19T13:29:16;7.18;;;1.50;;
77876;SDS011;67251;50.844;7.978;2023-11-19T13:31:41;6.15;;;1.50;;
77876;SDS011;67251;50.844;7.978;2023-11-19T13:34:06;10.27;;;1.55;;
77876;SDS011;67251;50.844;7.978;2023-11-19T13:36:33;10.50;;;2.53;;
77876;SDS011;67251;50.844;7.978;2023-11-19T13:38:58;10.65;;;3.15;;
77876;SDS011;67251;50.844;7.978;2023-11-19T13:41:27;11.13;;;3.70;;
77876;SDS011;67251;50.844;7.978;2023-11-19T13:43:52;9.13;;;1.92;;
77876;SDS011;67251;50.844;7.978;2023-11-19T13:46:18;7.60;;;2.20;;
77876;SDS011;67251;50.844;7.978;2023-11-19T13:48:45;13.00;;;4.20;;
77876;SDS011;67251;50.844;7.978;2023-11-19T13:51:10;9.02;;;2.50;;
77876;SDS011;67251;50.844;7.978;2023-11-19T13:53:35;10.75;;;2.28;;
77876;SDS011;67251;50.844;7.978;2023-11-19T13:56:01;8.18;;;1.52;;
77876;SDS011;67251;50.844;7.978;2023-11-19T13:58:29;9.82;;;1.80;;
77876;SDS011;67251;50.844;7.978;2023-11-19T14:00:54;6.93;;;1.58;;
77876;SDS011;67251;50.844;7.978;2023-11-19T14:03:20;8.50;;;1.50;;
77876;SDS011;67251;50.844;7.978;2023-11-19T14:05:45;7.28;;;1.63;;
77876;SDS011;67251;50.844;7.978;2023-11-19T14:08:11;11.68;;;1.70;;
77876;SDS011;67251;50.844;7.978;2023-11-19T14:10:37;9.80;;;1.75;;
77876;SDS011;67251;50.844;7.978;2023-11-19T14:13:05;10.60;;;1.85;;
77876;SDS011;67251;50.844;7.978;2023-11-19T14:15:33;9.13;;;2.33;;
77876;SDS011;67251;50.844;7.978;2023-11-19T14:17:59;7.50;;;1.50;;
77876;SDS011;67251;50.844;7.978;2023-11-19T14:20:24;9.25;;;2.20;;
77876;SDS011;67251;50.844;7.978;2023-11-19T14:22:50;6.28;;;1.30;;
77876;SDS011;67251;50.844;7.978;2023-11-19T14:25:17;9.02;;;1.60;;
77876;SDS011;67251;50.844;7.978;2023-11-19T14:27:44;8.13;;;2.10;;
77876;SDS011;67251;50.844;7.978;2023-11-19T14:30:11;9.10;;;1.73;;
77876;SDS011;67251;50.844;7.978;2023-11-19T14:32:41;12.52;;;1.73;;
77876;SDS011;67251;50.844;7.978;2023-11-19T14:35:08;8.07;;;1.75;;
77876;SDS011;67251;50.844;7.978;2023-11-19T14:37:37;6.57;;;1.55;;
77876;SDS011;67251;50.844;7.978;2023-11-19T14:40:02;7.25;;;1.95;;
77876;SDS011;67251;50.844;7.978;2023-11-19T14:42:30;5.03;;;1.27;;
77876;SDS011;67251;50.844;7.978;2023-11-19T14:44:55;6.60;;;1.70;;
77876;SDS011;67251;50.844;7.978;2023-11-19T14:47:21;6.07;;;1.40;;
77876;SDS011;67251;50.844;7.978;2023-11-19T14:49:47;9.77;;;1.60;;
77876;SDS011;67251;50.844;7.978;2023-11-19T14:52:12;6.07;;;1.27;;
77876;SDS011;67251;50.844;7.978;2023-11-19T14:54:38;8.35;;;1.73;;
77876;SDS011;67251;50.844;7.978;2023-11-19T14:57:04;8.55;;;1.65;;
77876;SDS011;67251;50.844;7.978;2023-11-19T14:59:36;7.50;;;1.60;;
77876;SDS011;67251;50.844;7.978;2023-11-19T15:02:02;11.70;;;1.98;;
77876;SDS011;67251;50.844;7.978;2023-11-19T15:04:28;11.63;;;2.00;;
77876;SDS011;67251;50.844;7.978;2023-11-19T15:06:56;7.45;;;2.85;;
77876;SDS011;67251;50.844;7.978;2023-11-19T15:09:22;8.75;;;1.65;;
77876;SDS011;67251;50.844;7.978;2023-11-19T15:11:47;8.15;;;1.60;;
77876;SDS011;67251;50.844;7.978;2023-11-19T15:14:13;10.50;;;1.80;;
77876;SDS011;67251;50.844;7.978;2023-11-19T15:16:44;9.88;;;2.28;;
77876;SDS011;67251;50.844;7.978;2023-11-19T15:19:10;6.93;;;1.40;;
77876;SDS011;67251;50.844;7.978;2023-11-19T15:21:37;7.85;;;1.48;;